Time;durP1;ratioP1;P1;durP2;ratioP2;P2;SDS_P1;SDS_P2;PMS_P1;PMS_P2;Temp;Humidity;BMP_temperature;BMP_pressure;BME280_temperature;BME280_humidity;BME280_pressure;Samples;Min_cycle;Max_cycle;Signal;HPM_P1;HPM_P2
2022/12/03 00:03:35;;;;;;;22.77;8.30;;;;;;;2.34;100.00;100086.72;12212908;19;20039;-82
2022/12/03 00:07:38;;;;;;;19.20;8.82;;;;;;;2.41;100.00;100078.66;12188413;19;19998;-82
2022/12/03 00:11:40;;;;;;;24.15;9.18;;;;;;;2.41;100.00;100082.22;12204809;19;21187;-81
2022/12/03 00:15:41;;;;;;;22.58;9.77;;;;;;;2.49;100.00;100084.81;12211089;19;20002;-82
2022/12/03 00:19:44;;;;;;;24.42;10.30;;;;;;;2.49;100.00;100087.53;12186080;19;20018;-81
2022/12/03 00:23:47;;;;;;;;;;;;;;;2.50;100.00;100080.25;12213673;19;20496;-82
2022/12/03 00:27:49;;;;;;;24.60;8.93;;;;;;;2.49;100.00;100083.97;12202513;19;19939;-81
2022/12/03 00:31:50;;;;;;;21.83;8.65;;;;;;;2.48;100.00;100074.16;12179203;19;20038;-81
2022/12/03 00:35:52;;;;;;;25.90;10.32;;;;;;;2.54;100.00;100077.97;12205991;19;19999;-81
2022/12/03 00:39:54;;;;;;;22.08;10.07;;;;;;;2.57;100.00;100073.00;12198270;19;20002;-82
2022/12/03 00:43:56;;;;;;;21.00;9.20;;;;;;;2.56;100.00;100078.63;12185499;19;20460;-81
2022/12/03 00:47:58;;;;;;;24.35;9.63;;;;;;;2.59;100.00;100075.50;12205694;19;20010;-81
2022/12/03 00:51:59;;;;;;;22.73;10.15;;;;;;;2.64;100.00;100078.50;12205232;19;20007;-81
2022/12/03 00:56:01;;;;;;;23.15;9.02;;;;;;;2.65;100.00;100072.88;12185432;19;20014;-81
2022/12/03 01:00:04;;;;;;;23.95;9.52;;;;;;;2.63;100.00;100071.38;12238443;19;21067;-80
2022/12/03 01:04:06;;;;;;;24.40;10.15;;;;;;;2.64;100.00;100075.78;12250021;19;20010;-80
2022/12/03 01:08:08;;;;;;;22.38;9.85;;;;;;;2.66;100.00;100073.72;12196318;19;20045;-80
2022/12/03 01:12:10;;;;;;;25.88;10.27;;;;;;;2.64;100.00;100071.19;12215106;19;20011;-81
2022/12/03 01:16:12;;;;;;;22.23;9.32;;;;;;;2.70;100.00;100084.00;12207776;19;20010;-80
2022/12/03 01:20:14;;;;;;;25.50;9.77;;;;;;;2.76;100.00;100081.56;12184603;19;20036;-81
2022/12/03 01:24:17;;;;;;;24.38;10.38;;;;;;;2.75;100.00;100083.47;12211381;19;20007;-80
2022/12/03 01:28:18;;;;;;;19.20;8.77;;;;;;;2.73;100.00;100086.34;12210015;19;20014;-80
2022/12/03 01:32:20;;;;;;;22.85;8.93;;;;;;;2.71;100.00;100080.28;12185762;19;20035;-80
2022/12/03 01:36:22;;;;;;;24.70;9.63;;;;;;;2.79;100.00;100078.47;12203787;19;19999;-81
2022/12/03 01:40:23;;;;;;;23.90;10.23;;;;;;;2.80;100.00;100086.44;12195212;19;20036;-81
2022/12/03 01:44:30;;;;;;;22.45;10.05;;;;;;;2.84;100.00;100086.91;12198192;19;20030;-81
2022/12/03 01:48:34;;;;;;;23.98;10.10;;;;;;;2.83;100.00;100091.50;12198803;19;20046;-82
2022/12/03 01:52:38;;;;;;;28.25;10.23;;;;;;;2.89;100.00;100088.00;12176470;19;20046;-84
2022/12/03 01:56:39;;;;;;;21.65;9.98;;;;;;;2.87;100.00;100081.06;12203345;19;20003;-82
2022/12/03 02:00:41;;;;;;;22.52;10.25;;;;;;;2.84;100.00;100076.84;12194488;19;20359;-82
2022/12/03 02:04:42;;;;;;;23.83;9.70;;;;;;;2.87;100.00;100098.25;12177379;19;20039;-82
2022/12/03 02:08:45;;;;;;;22.83;9.88;;;;;;;2.93;100.00;100075.69;12194558;19;20003;-82
2022/12/03 02:13:13;;;;;;;25.75;10.23;;;;;;;2.98;100.00;100083.28;12196505;19;20003;-82
2022/12/03 02:17:16;;;;;;;27.10;10.38;;;;;;;2.97;100.00;100087.03;12175934;19;20010;-82
2022/12/03 02:21:48;;;;;;;24.15;9.65;;;;;;;2.97;100.00;100089.75;12195023;19;20357;-82
2022/12/03 02:25:49;;;;;;;24.13;10.32;;;;;;;3.01;100.00;100085.63;12175818;19;20528;-83
2022/12/03 02:29:51;;;;;;;27.45;11.02;;;;;;;3.03;100.00;100090.84;12203517;19;20499;-82
2022/12/03 02:33:53;;;;;;;27.63;10.85;;;;;;;3.05;100.00;100084.19;12208496;19;20018;-83
2022/12/03 02:38:01;;;;;;;24.10;10.48;;;;;;;3.03;100.00;100085.41;12178755;19;19999;-83
2022/12/03 02:46:24;;;;;;;27.58;11.45;;;;;;;3.11;100.00;100088.00;12187456;19;20003;-83
2022/12/03 02:50:30;;;;;;;30.10;10.63;;;;;;;3.14;100.00;100072.13;12190750;19;20353;-82
2022/12/03 02:54:32;;;;;;;27.27;11.73;;;;;;;3.15;100.00;100078.41;12184914;19;20010;-82
2022/12/03 02:58:34;;;;;;;27.88;10.88;;;;;;;3.12;100.00;100079.66;12169757;19;19999;-83
2022/12/03 03:02:37;;;;;;;35.27;11.90;;;;;;;3.13;100.00;100072.34;12187878;19;20003;-82
2022/12/03 03:06:39;;;;;;;29.10;11.43;;;;;;;3.19;100.00;100083.28;12205156;19;20043;-82
2022/12/03 03:10:42;;;;;;;28.52;11.45;;;;;;;3.21;100.00;100080.34;12182397;19;20610;-82
2022/12/03 03:14:44;;;;;;;;;;;;;;;3.20;100.00;100084.97;12204594;19;20082;-82
2022/12/03 03:18:46;;;;;;;29.65;9.45;;;;;;;3.20;100.00;100081.41;12204224;19;20596;-82
2022/12/03 03:22:47;;;;;;;27.80;11.48;;;;;;;3.13;100.00;100081.34;12182223;19;20014;-82
2022/12/03 03:26:49;;;;;;;28.35;10.82;;;;;;;3.17;100.00;100079.06;12203755;19;20006;-82
2022/12/03 03:30:51;;;;;;;25.93;11.67;;;;;;;3.20;100.00;100082.22;12203250;19;20006;-82
2022/12/03 03:34:54;;;;;;;27.73;12.63;;;;;;;3.23;100.00;100088.34;12177569;19;20035;-82
2022/12/03 03:38:56;;;;;;;;;;;;;;;3.20;100.00;100082.22;12204537;19;20010;-83
2022/12/03 03:42:59;;;;;;;26.83;10.05;;;;;;;3.07;100.00;100067.66;12202608;19;20599;-84
2022/12/03 03:47:01;;;;;;;24.10;10.07;;;;;;;3.05;100.00;100072.47;12177732;19;20006;-82
2022/12/03 03:51:07;;;;;;;27.08;11.75;;;;;;;3.09;100.00;100065.56;12197598;19;20007;-82
2022/12/03 03:55:10;;;;;;;27.80;10.90;;;;;;;3.03;100.00;100063.63;12201503;19;20032;-82
2022/12/03 03:59:12;;;;;;;27.45;10.73;;;;;;;2.97;100.00;100065.25;12178427;19;20039;-82
2022/12/03 04:03:14;;;;;;;30.17;12.30;;;;;;;3.00;100.00;100059.41;12201609;19;20007;-82
2022/12/03 04:07:16;;;;;;;29.67;11.63;;;;;;;3.00;100.00;100056.69;12200085;19;20007;-82
2022/12/03 04:15:38;;;;;;;35.05;12.05;;;;;;;3.08;100.00;100056.56;12199714;19;20027;-82
2022/12/03 04:19:39;;;;;;;24.92;10.98;;;;;;;3.11;100.00;100053.47;12178596;19;20730;-82
2022/12/03 04:23:41;;;;;;;26.80;11.23;;;;;;;3.17;100.00;100049.94;12199190;19;20615;-82
2022/12/03 04:36:24;;;;;;;28.10;11.02;;;;;;;3.22;100.00;100045.81;12198341;19;20036;-83
2022/12/03 04:44:45;;;;;;;26.33;10.30;;;;;;;3.24;100.00;100049.16;12177267;19;20451;-83
2022/12/03 04:48:47;;;;;;;26.92;10.73;;;;;;;3.19;100.00;100056.06;12197159;19;20006;-83
2022/12/03 04:52:49;;;;;;;26.48;11.68;;;;;;;3.18;100.00;100051.66;12176836;19;20382;-82
2022/12/03 04:56:50;;;;;;;29.33;11.63;;;;;;;3.23;100.00;100047.50;12195208;19;20361;-81
2022/12/03 05:00:52;;;;;;;27.95;11.32;;;;;;;3.29;100.00;100047.53;12195256;19;20117;-81
2022/12/03 05:04:54;;;;;;;30.10;12.07;;;;;;;3.29;100.00;100052.16;12176616;19;20014;-82
2022/12/03 05:08:56;;;;;;;27.13;10.77;;;;;;;3.31;100.00;100042.75;12197045;19;20089;-83
2022/12/03 05:12:57;;;;;;;26.58;11.23;;;;;;;3.31;100.00;100041.91;12198743;19;20010;-84
2022/12/03 05:16:59;;;;;;;31.98;11.65;;;;;;;3.24;100.00;100044.56;12174225;19;20089;-83
2022/12/03 05:21:01;;;;;;;29.73;11.07;;;;;;;3.24;100.00;100041.81;12199153;19;20044;-82
2022/12/03 05:25:03;;;;;;;27.60;10.50;;;;;;;3.27;100.00;100043.31;12196463;19;20069;-82
2022/12/03 05:29:04;;;;;;;30.50;11.10;;;;;;;3.26;100.00;100044.38;12175972;19;20081;-83
2022/12/03 05:33:06;;;;;;;27.70;10.90;;;;;;;3.24;100.00;100041.00;12196832;19;20006;-82
2022/12/03 05:37:07;;;;;;;28.15;11.18;;;;;;;3.24;100.00;100043.72;12200232;19;20330;-83
2022/12/03 05:45:35;;;;;;;34.17;12.77;;;;;;;3.25;100.00;100045.41;12201218;19;20047;-82
2022/12/03 05:49:37;;;;;;;28.98;11.40;;;;;;;3.18;100.00;100038.03;12227843;19;20002;-81
2022/12/03 05:53:38;;;;;;;27.27;10.70;;;;;;;3.06;100.00;100034.13;12256704;19;20041;-81
2022/12/03 05:57:40;;;;;;;27.58;11.50;;;;;;;3.07;100.00;100033.13;12251852;19;19995;-81
2022/12/03 06:01:42;;;;;;;29.47;11.27;;;;;;;3.09;100.00;100032.91;12194791;19;20007;-83
2022/12/03 06:05:44;;;;;;;24.50;11.27;;;;;;;3.13;100.00;100037.78;12200692;19;20077;-83
2022/12/03 06:09:45;;;;;;;27.00;10.85;;;;;;;3.13;100.00;100036.94;12199183;19;20002;-82
2022/12/03 06:13:47;;;;;;;30.23;10.45;;;;;;;3.08;100.00;100033.94;12174728;19;20007;-82
2022/12/03 06:17:49;;;;;;;26.17;10.38;;;;;;;3.05;100.00;100037.06;12198169;19;20006;-82
2022/12/03 06:21:50;;;;;;;26.35;10.90;;;;;;;3.06;100.00;100042.28;12195134;19;20472;-81
2022/12/03 06:25:52;;;;;;;25.25;9.73;;;;;;;3.06;100.00;100036.84;12171609;19;20007;-82
2022/12/03 06:29:53;;;;;;;24.60;10.20;;;;;;;3.06;100.00;100028.69;12191988;19;20003;-82
2022/12/03 06:33:55;;;;;;;29.40;10.45;;;;;;;3.04;100.00;100030.78;12194078;19;20015;-82
2022/12/03 06:37:57;;;;;;;26.95;10.60;;;;;;;2.97;100.00;100025.28;12174638;19;20531;-83
2022/12/03 06:41:59;;;;;;;29.27;11.20;;;;;;;3.04;100.00;100025.34;12207020;19;20007;-82
2022/12/03 06:46:00;;;;;;;24.40;10.02;;;;;;;3.00;100.00;100017.75;12204958;19;20468;-82
2022/12/03 06:50:03;;;;;;;25.65;10.93;;;;;;;2.99;100.00;100030.53;12183371;19;20067;-82
2022/12/03 06:54:05;;;;;;;26.35;10.38;;;;;;;2.98;100.00;100034.28;12201436;19;20082;-82
2022/12/03 06:58:07;;;;;;;27.77;10.20;;;;;;;2.99;100.00;100029.69;12204228;19;20390;-81
2022/12/03 07:02:10;;;;;;;29.73;10.80;;;;;;;2.99;100.00;100029.69;12183059;19;20003;-82
2022/12/03 07:06:12;;;;;;;23.25;9.18;;;;;;;2.91;100.00;100045.09;12211681;19;20681;-83
2022/12/03 07:10:14;;;;;;;24.92;9.43;;;;;;;2.91;100.00;100034.19;12210395;19;20018;-82
2022/12/03 07:14:19;;;;;;;30.02;10.57;;;;;;;2.95;100.00;100038.25;12188115;19;20081;-80
2022/12/03 07:18:21;;;;;;;26.63;10.57;;;;;;;2.95;100.00;100038.25;12226870;19;20229;-82
2022/12/03 07:22:23;;;;;;;23.10;9.40;;;;;;;2.97;100.00;100049.78;12206132;19;20007;-82
2022/12/03 07:26:25;;;;;;;28.37;11.17;;;;;;;2.95;100.00;100046.41;12184167;19;20039;-82
2022/12/03 07:30:27;;;;;;;27.60;10.13;;;;;;;2.96;100.00;100037.19;12201673;19;20382;-82
2022/12/03 07:34:30;;;;;;;21.95;9.35;;;;;;;2.96;100.00;100029.03;12200033;19;20483;-81
2022/12/03 07:38:32;;;;;;;22.45;10.23;;;;;;;2.95;100.00;100032.78;12202076;19;20027;-82
2022/12/03 07:42:33;;;;;;;24.08;10.63;;;;;;;2.97;100.00;100038.03;12206525;19;20067;-82
2022/12/03 07:46:35;;;;;;;24.75;9.88;;;;;;;3.04;100.00;100027.22;12180664;19;21599;-82
2022/12/03 07:50:37;;;;;;;22.40;8.98;;;;;;;3.16;100.00;100036.53;12202505;19;20021;-82
2022/12/03 07:54:38;;;;;;;28.80;11.32;;;;;;;3.26;100.00;100036.19;12202584;19;20002;-82
2022/12/03 07:58:40;;;;;;;24.05;10.45;;;;;;;3.31;100.00;100056.38;12183257;19;20040;-82
2022/12/03 08:02:42;;;;;;;28.65;11.52;;;;;;;3.37;100.00;100035.66;12201881;19;20002;-83
2022/12/03 08:06:44;;;;;;;22.80;10.10;;;;;;;3.40;100.00;100033.38;12205508;19;20528;-82
2022/12/03 08:10:46;;;;;;;26.33;11.20;;;;;;;3.42;100.00;100035.91;12179738;19;20006;-82
2022/12/03 08:14:48;;;;;;;23.60;9.43;;;;;;;3.44;100.00;100031.09;12202228;19;20027;-82
2022/12/03 08:18:53;;;;;;;22.27;11.00;;;;;;;3.59;100.00;100041.91;12201550;19;20072;-81
2022/12/03 08:22:56;;;;;;;25.27;9.52;;;;;;;3.67;100.00;100036.31;12179639;19;20064;-82
2022/12/03 08:26:58;;;;;;;24.48;10.55;;;;;;;3.76;100.00;100026.09;12203723;19;20035;-83
2022/12/03 08:31:06;;;;;;;25.73;9.83;;;;;;;3.84;100.00;100031.38;12201139;19;20003;-83
2022/12/03 08:35:17;;;;;;;23.95;10.70;;;;;;;3.96;100.00;100029.78;12183665;19;20031;-81
2022/12/03 08:39:32;;;;;;;25.35;11.90;;;;;;;3.98;100.00;100030.41;12201384;19;20020;-83
2022/12/03 08:43:40;;;;;;;26.75;11.52;;;;;;;4.02;100.00;100028.13;12161482;19;20027;-81
2022/12/03 08:47:42;;;;;;;25.08;11.20;;;;;;;4.04;100.00;100031.47;12168640;19;20392;-81
2022/12/03 08:51:44;;;;;;;23.15;10.32;;;;;;;4.15;100.00;100030.91;12191560;19;19998;-81
2022/12/03 08:55:50;;;;;;;24.17;11.30;;;;;;;4.26;100.00;100035.78;12167734;19;20062;-82
2022/12/03 09:00:19;;;;;;;21.70;9.98;;;;;;;4.35;100.00;100028.28;12192130;19;20039;-83
2022/12/03 09:04:24;;;;;;;23.20;10.55;;;;;;;4.44;100.00;100028.94;12193140;19;20023;-82
2022/12/03 09:08:25;;;;;;;23.13;10.77;;;;;;;4.57;100.00;100034.44;12176104;19;20006;-82
2022/12/03 09:12:27;;;;;;;25.00;11.32;;;;;;;4.67;100.00;100023.97;12190764;19;20082;-82
2022/12/03 09:16:29;;;;;;;25.65;10.82;;;;;;;4.71;100.00;100013.47;12199583;19;20006;-81
2022/12/03 09:20:31;;;;;;;23.25;9.82;;;;;;;4.73;100.00;100025.88;12176057;19;20007;-82
2022/12/03 09:24:33;;;;;;;24.30;10.82;;;;;;;4.70;100.00;100023.56;12198471;19;20003;-82
2022/12/03 09:28:34;;;;;;;23.20;10.02;;;;;;;4.72;100.00;100026.91;12176853;19;20006;-81
2022/12/03 09:32:36;;;;;;;28.13;11.45;;;;;;;4.77;100.00;100031.75;12199092;19;20064;-81
2022/12/03 09:36:38;;;;;;;22.83;10.93;;;;;;;4.89;100.00;100027.38;12195546;19;20089;-81
2022/12/03 09:40:40;;;;;;;21.42;10.07;;;;;;;4.99;100.00;100013.31;12176622;19;20077;-82
2022/12/03 09:44:42;;;;;;;22.33;11.27;;;;;;;5.08;100.00;100005.75;12196853;19;20035;-82
2022/12/03 09:48:44;;;;;;;26.00;10.27;;;;;;;5.18;100.00;99993.38;12195585;19;20389;-83
2022/12/03 09:52:48;;;;;;;22.52;10.23;;;;;;;5.13;100.00;99993.13;12175614;19;20260;-82
2022/12/03 09:56:52;;;;;;;24.33;10.77;;;;;;;5.17;100.00;99993.56;12192713;19;20092;-82
2022/12/03 10:00:55;;;;;;;23.65;10.70;;;;;;;5.20;100.00;99987.66;12183166;19;19998;-81
2022/12/03 10:04:57;;;;;;;28.52;11.63;;;;;;;5.23;100.00;99992.72;12176547;19;20006;-81
2022/12/03 10:08:59;;;;;;;23.00;10.60;;;;;;;5.29;100.00;99993.75;12194074;19;20007;-81
2022/12/03 10:13:02;;;;;;;21.23;10.73;;;;;;;5.27;100.00;99996.72;12196777;19;20417;-81
2022/12/03 10:17:04;;;;;;;23.48;10.98;;;;;;;5.32;100.00;99996.91;12187670;19;20614;-81
2022/12/03 10:21:21;;;;;;;23.30;10.20;;;;;;;5.47;100.00;99993.97;12206567;19;20601;-82
2022/12/03 10:25:23;;;;;;;24.00;10.70;;;;;;;5.54;100.00;99991.25;12210724;19;20587;-82
2022/12/03 10:29:30;;;;;;;21.95;10.63;;;;;;;5.55;100.00;99987.44;12189209;19;20080;-81
2022/12/03 10:33:37;;;;;;;24.38;10.60;;;;;;;5.55;100.00;99976.50;12209301;19;20033;-81
2022/12/03 10:38:05;;;;;;;25.48;11.88;;;;;;;5.52;100.00;99977.78;12186453;19;20002;-80
2022/12/03 10:42:17;;;;;;;25.23;11.52;;;;;;;5.41;100.00;99973.81;12257572;19;20033;-79
2022/12/03 10:46:22;;;;;;;27.27;12.02;;;;;;;5.40;100.00;99974.84;12227677;19;20002;-81
2022/12/03 10:50:24;;;;;;;26.23;11.15;;;;;;;5.37;100.00;99967.06;12189641;19;20044;-81
2022/12/03 10:54:27;;;;;;;25.02;11.93;;;;;;;5.46;100.00;99956.75;12206774;19;20010;-81
2022/12/03 10:58:33;;;;;;;25.15;11.05;;;;;;;5.60;100.00;99949.38;12202358;19;20011;-83
2022/12/03 11:02:36;;;;;;;24.23;11.07;;;;;;;5.68;100.00;99943.66;12187969;19;20079;-81
2022/12/03 11:06:37;;;;;;;21.23;8.70;;;;;;;5.71;100.00;99938.63;12210702;19;20006;-80
2022/12/03 11:10:39;;;;;;;25.88;11.35;;;;;;;5.73;100.00;99941.13;12181628;19;20038;-81
2022/12/03 11:14:53;;;;;;;28.88;13.30;;;;;;;5.82;100.00;99934.38;12205651;19;20415;-84
2022/12/03 11:18:55;;;;;;;28.30;12.52;;;;;;;5.85;100.00;99933.94;12203855;19;20002;-81
2022/12/03 11:22:57;;;;;;;25.80;12.45;;;;;;;5.89;100.00;99926.16;12177681;19;21722;-81
2022/12/03 11:26:59;;;;;;;31.75;13.10;;;;;;;5.88;100.00;99925.28;12198509;19;20037;-80
2022/12/03 11:31:08;;;;;;;30.10;14.38;;;;;;;5.85;100.00;99923.00;12199263;19;20015;-80
2022/12/03 11:35:22;;;;;;;32.78;13.77;;;;;;;5.86;100.00;99919.22;12176919;19;20098;-80
2022/12/03 11:39:49;;;;;;;35.28;14.52;;;;;;;5.87;100.00;99904.47;12197915;19;20066;-81
2022/12/03 11:43:50;;;;;;;31.63;14.25;;;;;;;5.84;100.00;99906.81;12176789;19;20011;-83
2022/12/03 11:47:58;;;;;;;30.77;14.15;;;;;;;5.84;100.00;99898.59;12195505;19;20011;-81
2022/12/03 11:52:10;;;;;;;31.95;13.73;;;;;;;5.85;100.00;99903.84;12195611;19;20026;-80
2022/12/03 11:56:18;;;;;;;26.13;12.77;;;;;;;5.90;100.00;99905.94;12170574;19;21098;-80
2022/12/03 12:00:23;;;;;;;32.35;13.07;;;;;;;5.84;100.00;99904.91;12198571;19;20085;-82
2022/12/03 12:04:28;;;;;;;29.65;13.80;;;;;;;5.83;100.00;99896.91;12201745;19;20002;-83
2022/12/03 12:08:30;;;;;;;30.08;13.27;;;;;;;5.81;100.00;99894.41;12184682;19;20007;-83
2022/12/03 12:12:41;;;;;;;31.60;13.35;;;;;;;5.83;100.00;99885.97;12258873;19;20024;-82
2022/12/03 12:16:53;;;;;;;29.38;14.02;;;;;;;5.81;100.00;99875.25;12221063;19;20005;-81
2022/12/03 12:21:34;;;;;;;30.85;14.00;;;;;;;5.86;100.00;99880.06;12202961;19;20359;-82
2022/12/03 12:25:39;;;;;;;30.95;14.55;;;;;;;5.83;100.00;99889.56;12171281;19;20503;-82
2022/12/03 12:29:42;;;;;;;29.27;13.40;;;;;;;5.89;100.00;99882.41;12199686;19;20010;-84
2022/12/03 12:34:00;;;;;;;31.17;14.55;;;;;;;5.90;100.00;99873.13;12193692;19;20011;-83
2022/12/03 12:38:14;;;;;;;29.43;14.20;;;;;;;5.90;100.00;99868.50;12173581;19;20006;-83
2022/12/03 12:42:28;;;;;;;27.95;12.30;;;;;;;5.89;100.00;99869.56;12197531;19;20059;-82
2022/12/03 12:46:30;;;;;;;28.02;13.32;;;;;;;5.92;100.00;99871.03;12197667;19;20002;-83
2022/12/03 12:50:57;;;;;;;30.33;14.70;;;;;;;5.94;100.00;99867.03;12176189;19;20018;-82
2022/12/03 12:54:58;;;;;;;30.48;13.02;;;;;;;5.90;100.00;99870.41;12195359;19;20537;-82
2022/12/03 12:59:19;;;;;;;31.98;14.55;;;;;;;5.82;100.00;99879.66;12166699;19;20026;-82
2022/12/03 13:03:26;;;;;;;28.30;13.30;;;;;;;5.79;100.00;99873.81;12193123;19;20030;-81
2022/12/03 13:07:28;;;;;;;29.65;12.95;;;;;;;5.74;100.00;99877.22;12189306;19;20014;-81
2022/12/03 13:11:40;;;;;;;29.13;12.55;;;;;;;5.79;100.00;99873.81;12168884;19;20007;-81
2022/12/03 13:15:51;;;;;;;30.00;14.13;;;;;;;5.65;100.00;99878.47;12193972;19;20007;-82
2022/12/03 13:19:55;;;;;;;35.42;15.00;;;;;;;5.47;100.00;99866.38;12171610;19;20002;-81
2022/12/03 13:24:34;;;;;;;31.90;14.50;;;;;;;5.34;100.00;99871.03;12190729;19;20010;-82
2022/12/03 13:28:36;;;;;;;28.17;13.23;;;;;;;5.20;100.00;99865.56;12170479;19;20007;-82
2022/12/03 13:32:41;;;;;;;28.83;12.60;;;;;;;5.16;100.00;99868.97;12192787;19;20007;-82
2022/12/03 13:36:44;;;;;;;23.35;12.07;;;;;;;5.05;100.00;99866.88;12194353;19;20027;-82
2022/12/03 13:41:01;;;;;;;26.55;12.40;;;;;;;4.99;100.00;99858.47;12170475;19;20006;-82
2022/12/03 13:45:25;;;;;;;;;;;;;;;4.98;100.00;99855.97;12191477;19;20888;-82
2022/12/03 13:49:27;;;;;;;25.42;10.48;;;;;;;4.97;100.00;99849.66;12190360;19;19974;-82
2022/12/03 13:53:37;;;;;;;27.83;10.88;;;;;;;4.91;100.00;99847.78;12169021;19;20015;-81
2022/12/03 13:57:39;;;;;;;29.98;12.63;;;;;;;4.86;100.00;99846.75;12188624;19;20027;-82
2022/12/03 14:01:42;;;;;;;31.15;11.82;;;;;;;4.82;100.00;99845.47;12171938;19;20006;-81
2022/12/03 14:05:44;;;;;;;27.00;11.88;;;;;;;4.83;100.00;99850.72;12198782;19;20083;-82
2022/12/03 14:09:46;;;;;;;25.67;11.38;;;;;;;4.84;100.00;99855.13;12198284;19;20349;-82
2022/12/03 14:13:48;;;;;;;25.77;12.27;;;;;;;4.89;100.00;99840.84;12174895;19;20007;-82
2022/12/03 14:17:49;;;;;;;28.60;12.88;;;;;;;4.91;100.00;99841.50;12204857;19;20030;-82
2022/12/03 14:21:51;;;;;;;26.02;14.20;;;;;;;4.91;100.00;99844.22;12218821;19;20013;-81
2022/12/03 14:25:53;;;;;;;28.42;12.65;;;;;;;4.88;100.00;99842.75;12179873;19;20031;-82
2022/12/03 14:29:54;;;;;;;29.88;13.68;;;;;;;4.88;100.00;99836.44;12194033;19;20011;-83
2022/12/03 14:33:57;;;;;;;32.30;14.17;;;;;;;4.83;100.00;99820.69;12198037;19;20014;-82
2022/12/03 14:37:58;;;;;;;28.73;12.98;;;;;;;4.85;100.00;99826.78;12177169;19;20360;-82
2022/12/03 14:42:12;;;;;;;27.13;11.90;;;;;;;4.81;100.00;99820.06;12197000;19;20010;-83
2022/12/03 14:46:14;;;;;;;25.33;11.43;;;;;;;4.73;100.00;99823.88;12193232;19;20365;-82
2022/12/03 14:50:15;;;;;;;27.27;12.10;;;;;;;4.74;100.00;99827.44;12173679;19;20030;-81
2022/12/03 14:54:18;;;;;;;24.35;11.10;;;;;;;4.81;100.00;99839.16;12193865;19;20011;-82
2022/12/03 14:58:19;;;;;;;27.77;12.52;;;;;;;4.86;100.00;99836.66;12192302;19;20074;-83
2022/12/03 15:02:21;;;;;;;33.67;13.07;;;;;;;4.83;100.00;99841.72;12183197;19;20009;-82
2022/12/03 15:06:23;;;;;;;25.63;11.77;;;;;;;4.86;100.00;99846.75;12208870;19;20015;-81
2022/12/03 15:10:24;;;;;;;28.42;12.88;;;;;;;4.84;100.00;99843.38;12206995;19;20035;-82
2022/12/03 15:14:26;;;;;;;29.40;13.13;;;;;;;4.86;100.00;99844.84;12184286;19;20498;-82
2022/12/03 15:18:29;;;;;;;30.33;13.30;;;;;;;4.79;100.00;99847.59;12210081;19;20002;-82
2022/12/03 15:22:31;;;;;;;29.13;12.70;;;;;;;4.66;100.00;99844.03;12207436;19;21017;-83
2022/12/03 15:26:33;;;;;;;34.20;14.07;;;;;;;4.60;100.00;99848.44;12188974;19;20488;-82
2022/12/03 15:30:35;;;;;;;29.90;15.38;;;;;;;4.59;100.00;99854.09;12208567;19;20007;-81
2022/12/03 15:34:36;;;;;;;30.33;15.07;;;;;;;4.58;100.00;99853.28;12197428;19;20007;-81
2022/12/03 15:38:38;;;;;;;32.63;14.57;;;;;;;4.52;100.00;99845.91;12237056;19;20018;-82
2022/12/03 15:42:39;;;;;;;33.45;14.82;;;;;;;4.56;100.00;99848.00;12230807;19;20007;-82
2022/12/03 15:46:41;;;;;;;33.75;15.13;;;;;;;4.61;100.00;99849.25;12191325;19;20062;-82
2022/12/03 15:50:43;;;;;;;32.22;14.55;;;;;;;4.63;100.00;99855.34;12233343;19;20006;-81
2022/12/03 15:54:45;;;;;;;35.22;16.70;;;;;;;4.61;100.00;99846.53;12215062;19;20007;-82
2022/12/03 15:58:46;;;;;;;34.10;14.47;;;;;;;4.61;100.00;99849.25;12187522;19;20345;-82
2022/12/03 16:02:50;;;;;;;36.95;16.50;;;;;;;4.62;100.00;99845.50;12200122;19;20021;-82
2022/12/03 16:06:53;;;;;;;34.47;14.50;;;;;;;4.55;100.00;99846.34;12206606;19;20028;-82
2022/12/03 16:10:55;;;;;;;35.08;15.55;;;;;;;4.54;100.00;99850.09;12180738;19;21664;-83
2022/12/03 16:14:57;;;;;;;32.33;13.82;;;;;;;4.47;100.00;99841.09;12206205;19;20364;-82
2022/12/03 16:18:58;;;;;;;38.25;14.88;;;;;;;4.49;100.00;99846.31;12205036;19;20034;-82
2022/12/03 16:23:00;;;;;;;33.50;15.43;;;;;;;4.45;100.00;99845.91;12186844;19;20011;-82
2022/12/03 16:27:02;;;;;;;32.97;15.07;;;;;;;4.39;100.00;99835.00;12206600;19;20675;-83
2022/12/03 16:31:04;;;;;;;37.65;16.48;;;;;;;4.30;100.00;99837.09;12204002;19;20015;-83
2022/12/03 16:35:06;;;;;;;36.07;16.03;;;;;;;4.32;100.00;99835.00;12182187;19;20680;-82
2022/12/03 16:39:08;;;;;;;34.70;14.43;;;;;;;4.29;100.00;99835.41;12205332;19;20028;-82
2022/12/03 16:43:10;;;;;;;34.15;15.13;;;;;;;4.28;100.00;99833.72;12200545;19;20009;-82
2022/12/03 16:47:11;;;;;;;34.28;14.70;;;;;;;4.29;100.00;99829.97;12181773;19;20032;-82
2022/12/03 16:51:13;;;;;;;33.30;14.65;;;;;;;4.33;100.00;99828.47;12202060;19;20491;-82
2022/12/03 16:55:15;;;;;;;30.58;14.35;;;;;;;4.36;100.00;99825.34;12201698;19;20043;-82
2022/12/03 16:59:16;;;;;;;41.65;18.45;;;;;;;4.38;100.00;99817.78;12178751;19;20010;-82
2022/12/03 17:03:19;;;;;;;52.42;22.63;;;;;;;4.38;100.00;99812.34;12198925;19;20070;-82
2022/12/03 17:07:21;;;;;;;38.20;16.55;;;;;;;4.31;100.00;99827.84;12203849;19;20034;-82
2022/12/03 17:11:22;;;;;;;52.03;20.88;;;;;;;4.23;100.00;99820.72;12179262;19;20082;-82
2022/12/03 17:15:24;;;;;;;59.47;21.48;;;;;;;4.29;100.00;99819.88;12198578;19;20484;-81
2022/12/03 17:19:26;;;;;;;40.92;16.58;;;;;;;4.31;100.00;99814.19;12201731;19;20818;-82
2022/12/03 17:23:28;;;;;;;36.67;15.05;;;;;;;4.27;100.00;99804.75;12177847;19;20010;-82
2022/12/03 17:27:30;;;;;;;37.00;16.58;;;;;;;4.23;100.00;99801.63;12201266;19;20003;-82
2022/12/03 17:31:31;;;;;;;34.78;15.45;;;;;;;4.22;100.00;99810.00;12195369;19;20014;-83
2022/12/03 17:35:42;;;;;;;38.63;15.27;;;;;;;4.21;100.00;99811.06;12182531;19;20007;-82
2022/12/03 17:39:43;;;;;;;30.73;13.68;;;;;;;4.20;100.00;99804.75;12210330;19;20099;-81
2022/12/03 17:43:45;;;;;;;33.17;14.98;;;;;;;4.23;100.00;99807.06;12189896;19;20086;-82
2022/12/03 17:47:47;;;;;;;32.22;13.82;;;;;;;4.28;100.00;99811.88;12208373;19;20293;-83
2022/12/03 17:51:48;;;;;;;29.10;13.55;;;;;;;4.29;100.00;99808.97;12214631;19;20451;-83
2022/12/03 17:55:50;;;;;;;34.80;14.63;;;;;;;4.17;100.00;99801.63;12189181;19;20025;-84
2022/12/03 17:59:51;;;;;;;31.55;13.30;;;;;;;4.20;100.00;99806.66;12200316;19;20007;-84
2022/12/03 18:03:53;;;;;;;32.13;13.70;;;;;;;4.23;100.00;99804.34;12192793;19;20535;-82
2022/12/03 18:07:55;;;;;;;32.83;15.07;;;;;;;4.26;100.00;99805.81;12182753;19;20023;-83
2022/12/03 18:11:57;;;;;;;36.45;15.18;;;;;;;4.17;100.00;99793.44;12208353;19;20070;-84
2022/12/03 18:15:59;;;;;;;33.20;15.30;;;;;;;4.19;100.00;99802.22;12209611;19;20550;-83
2022/12/03 18:20:01;;;;;;;29.02;14.10;;;;;;;4.19;100.00;99794.06;12236943;19;20006;-82
2022/12/03 18:24:03;;;;;;;32.65;14.27;;;;;;;4.19;100.00;99794.88;12254464;19;20002;-83
2022/12/03 18:28:04;;;;;;;37.00;14.27;;;;;;;4.11;100.00;99792.38;12213344;19;20024;-83
2022/12/03 18:32:09;;;;;;;31.75;14.05;;;;;;;4.10;100.00;99788.81;12183105;19;20407;-83
2022/12/03 18:36:34;;;;;;;32.60;13.00;;;;;;;4.07;100.00;99788.38;12213039;19;20007;-84
2022/12/03 18:40:37;;;;;;;31.27;13.80;;;;;;;4.09;100.00;99787.13;12216149;19;20014;-83
2022/12/03 18:44:40;;;;;;;41.63;17.08;;;;;;;4.15;100.00;99784.63;12190378;19;20013;-84
2022/12/03 18:48:49;;;;;;;30.77;15.48;;;;;;;4.16;100.00;99780.84;12212876;19;20016;-83
2022/12/03 18:52:51;;;;;;;31.70;14.15;;;;;;;4.21;100.00;99783.78;12189729;19;20358;-83